createdAt,value
2022-09-23T00:06:03.047Z,15.70
2022-09-23T00:14:10.989Z,15.60
2022-09-23T00:22:16.272Z,15.30
2022-09-23T00:30:24.246Z,15.40
2022-09-23T00:38:29.673Z,15.30
2022-09-23T00:46:40.789Z,15.20
2022-09-23T00:54:47.607Z,15.10
2022-09-23T01:02:55.531Z,15.00
2022-09-23T01:11:09.990Z,15.00
2022-09-23T01:19:37.276Z,15.00
2022-09-23T01:27:55.257Z,14.80
2022-09-23T01:36:13.757Z,14.70
2022-09-23T01:44:31.178Z,14.60
2022-09-23T01:52:43.211Z,14.60
2022-09-23T02:00:55.937Z,14.60
2022-09-23T02:09:06.206Z,14.40
2022-09-23T02:17:14.743Z,14.40
2022-09-23T02:25:28.854Z,14.50
2022-09-23T02:33:40.122Z,14.50
2022-09-23T02:41:55.917Z,14.50
2022-09-23T02:50:01.279Z,14.40
2022-09-23T02:58:09.196Z,14.30
2022-09-23T03:06:26.329Z,14.40
2022-09-23T03:14:43.215Z,14.50
2022-09-23T03:22:54.628Z,14.60
2022-09-23T03:31:03.035Z,14.60
2022-09-23T03:39:11.489Z,14.80
2022-09-23T03:47:19.917Z,14.70
2022-09-23T03:55:25.190Z,14.70
2022-09-23T04:03:33.053Z,14.70
2022-09-23T04:11:38.432Z,14.80
2022-09-23T04:19:46.333Z,14.70
2022-09-23T04:27:51.616Z,14.70
2022-09-23T04:35:59.820Z,14.80
2022-09-23T04:44:05.913Z,14.80
2022-09-23T04:52:13.861Z,14.80
2022-09-23T05:00:19.987Z,14.90
2022-09-23T05:08:27.854Z,14.90
2022-09-23T05:16:33.217Z,15.10
2022-09-23T05:24:41.227Z,15.10
2022-09-23T05:32:46.484Z,15.30
2022-09-23T05:40:59.847Z,15.40
2022-09-23T05:49:06.296Z,15.50
2022-09-23T05:57:14.099Z,15.30
2022-09-23T06:05:19.865Z,15.30
2022-09-23T06:13:28.285Z,15.70
2022-09-23T06:21:33.873Z,16.00
2022-09-23T06:29:41.774Z,16.10
2022-09-23T06:37:47.074Z,16.40
2022-09-23T06:45:59.337Z,16.70
2022-09-23T06:54:04.883Z,17.00
2022-09-23T07:02:13.352Z,16.60
2022-09-23T07:10:19.065Z,16.80
2022-09-23T07:18:27.821Z,16.80
2022-09-23T07:26:34.191Z,16.60
2022-09-23T07:34:43.291Z,16.50
2022-09-23T07:42:48.664Z,17.10
2022-09-23T07:50:56.842Z,17.30
2022-09-23T07:59:05.183Z,16.80
2022-09-23T08:07:16.510Z,17.30
2022-09-23T08:15:22.285Z,18.00
2022-09-23T08:23:33.761Z,18.50
2022-09-23T08:31:39.140Z,19.90
2022-09-23T08:39:47.056Z,20.20
2022-09-23T08:47:58.797Z,20.40
2022-09-23T08:56:10.308Z,21.00
2022-09-23T09:04:23.314Z,21.40
2022-09-23T09:12:37.509Z,21.80
2022-09-23T09:20:48.781Z,22.50
2022-09-23T09:29:17.079Z,22.70
2022-09-23T09:37:35.923Z,22.50
2022-09-23T09:46:00.110Z,23.80
2022-09-23T09:54:23.172Z,24.40
2022-09-23T10:02:33.846Z,28.00
2022-09-23T10:10:40.680Z,31.10
2022-09-23T10:18:57.202Z,31.60
2022-09-23T10:27:07.836Z,28.80
2022-09-23T10:35:22.042Z,28.50
2022-09-23T10:43:47.090Z,26.90
2022-09-23T10:52:05.204Z,25.70
2022-09-23T11:00:32.699Z,25.10
2022-09-23T11:08:57.524Z,30.00
2022-09-23T11:17:20.465Z,42.30
2022-09-23T11:25:40.508Z,37.40
2022-09-23T11:33:58.649Z,30.00
2022-09-23T11:42:12.938Z,26.00
2022-09-23T11:50:27.922Z,24.90
2022-09-23T11:58:46.247Z,24.40
2022-09-23T12:07:01.675Z,24.70
2022-09-23T12:15:16.113Z,23.20
2022-09-23T12:23:45.902Z,21.50
2022-09-23T12:31:53.854Z,21.90
2022-09-23T12:40:05.043Z,19.40
2022-09-23T12:48:46.801Z,20.60
2022-09-23T12:57:12.274Z,21.50
2022-09-23T13:05:38.294Z,21.60
2022-09-23T13:13:46.212Z,21.50
2022-09-23T13:22:11.753Z,21.40
2022-09-23T13:30:26.469Z,20.30
2022-09-23T13:38:35.589Z,19.70
2022-09-23T13:46:45.926Z,20.10
2022-09-23T13:54:54.693Z,19.40
2022-09-23T14:02:59.993Z,19.00
2022-09-23T14:11:09.249Z,19.20
2022-09-23T14:19:20.523Z,19.20
2022-09-23T14:27:31.760Z,19.40
2022-09-23T14:35:44.782Z,19.60
2022-09-23T14:43:55.968Z,19.50
2022-09-23T14:52:03.506Z,19.50
2022-09-23T15:00:20.530Z,19.40
2022-09-23T15:08:29.073Z,19.40
2022-09-23T15:16:37.054Z,19.30
2022-09-23T15:24:46.181Z,19.40
2022-09-23T15:32:54.227Z,19.40
2022-09-23T15:40:59.611Z,19.30
2022-09-23T15:49:09.864Z,19.10
2022-09-23T15:57:15.226Z,19.20
2022-09-23T16:05:29.806Z,19.10
2022-09-23T16:13:35.088Z,19.10
2022-09-23T16:21:44.845Z,19.00
2022-09-23T16:29:50.139Z,18.80
2022-09-23T16:37:58.045Z,18.60
2022-09-23T16:46:03.444Z,18.40
2022-09-23T16:54:13.721Z,17.90
2022-09-23T17:02:31.380Z,17.80
2022-09-23T17:10:39.362Z,17.90
2022-09-23T17:18:44.971Z,17.70
2022-09-23T17:26:53.525Z,17.30
2022-09-23T17:35:04.520Z,17.70
2022-09-23T17:43:12.486Z,17.80
2022-09-23T17:51:20.039Z,18.00
2022-09-23T17:59:28.387Z,18.00
2022-09-23T18:07:33.778Z,17.80
2022-09-23T18:15:43.195Z,17.60
2022-09-23T18:23:48.483Z,17.70
2022-09-23T18:31:56.506Z,17.70
2022-09-23T18:40:05.757Z,17.70
2022-09-23T18:48:26.202Z,17.60
2022-09-23T18:56:37.335Z,17.60
2022-09-23T19:04:45.284Z,17.70
2022-09-23T19:12:50.570Z,17.40
2022-09-23T19:21:02.556Z,17.20
2022-09-23T19:29:19.584Z,16.70
2022-09-23T19:37:27.614Z,16.70
2022-09-23T19:45:34.231Z,16.50
2022-09-23T19:53:45.624Z,16.60
2022-09-23T20:01:51.512Z,16.50
2022-09-23T20:09:59.523Z,16.40
2022-09-23T20:18:04.783Z,16.20
2022-09-23T20:26:25.761Z,16.10
2022-09-23T20:34:33.689Z,15.80
2022-09-23T20:42:41.541Z,16.00
2022-09-23T20:50:46.907Z,15.90
2022-09-23T20:58:55.154Z,15.90
2022-09-23T21:07:01.533Z,15.80
2022-09-23T21:15:10.262Z,15.50
2022-09-23T21:23:15.554Z,15.50
2022-09-23T21:31:28.145Z,15.40
2022-09-23T21:39:33.442Z,15.40
2022-09-23T21:47:42.859Z,15.30
2022-09-23T21:55:48.964Z,15.30
2022-09-23T22:03:58.366Z,15.20
2022-09-23T22:12:12.852Z,15.30
2022-09-23T22:20:21.025Z,14.90
2022-09-23T22:28:38.717Z,14.80
2022-09-23T22:36:46.566Z,14.80
2022-09-23T22:44:52.002Z,14.70
2022-09-23T22:53:01.930Z,14.70
2022-09-23T23:01:07.214Z,14.40
2022-09-23T23:09:18.630Z,14.30
2022-09-23T23:17:23.826Z,14.50
2022-09-23T23:25:31.733Z,14.00
2022-09-23T23:33:37.122Z,14.10
2022-09-23T23:41:45.517Z,13.70
2022-09-23T23:49:50.807Z,13.90
2022-09-23T23:58:03.276Z,13.80
